createdAt,value
2024-04-06T00:00:30.334Z,16.42
2024-04-06T00:01:01.722Z,16.43
2024-04-06T00:01:33.128Z,16.43
2024-04-06T00:02:04.776Z,16.44
2024-04-06T00:02:36.159Z,16.44
2024-04-06T00:03:09.283Z,16.45
2024-04-06T00:03:40.715Z,16.46
2024-04-06T00:04:12.392Z,16.48
2024-04-06T00:04:43.803Z,16.49
2024-04-06T00:05:18.124Z,16.49
2024-04-06T00:05:49.540Z,16.50
2024-04-06T00:06:20.954Z,16.51
2024-04-06T00:06:52.366Z,16.52
2024-04-06T00:07:24.062Z,16.53
2024-04-06T00:08:02.443Z,16.54
2024-04-06T00:08:37.407Z,16.56
2024-04-06T00:09:09.562Z,16.57
2024-04-06T00:09:41.050Z,16.59
2024-04-06T00:10:12.492Z,16.60
2024-04-06T00:10:44.749Z,16.61
2024-04-06T00:11:17.111Z,16.63
2024-04-06T00:11:48.599Z,16.64
2024-04-06T00:12:20.007Z,16.66
2024-04-06T00:12:51.724Z,16.67
2024-04-06T00:13:23.118Z,16.68
2024-04-06T00:13:54.545Z,16.69
2024-04-06T00:14:25.984Z,16.70
2024-04-06T00:14:57.388Z,16.71
2024-04-06T00:15:28.797Z,16.71
2024-04-06T00:16:00.201Z,16.72
2024-04-06T00:16:31.621Z,16.73
2024-04-06T00:17:03.170Z,16.74
2024-04-06T00:17:36.040Z,16.74
2024-04-06T00:18:07.441Z,16.74
2024-04-06T00:18:39.862Z,16.74
2024-04-06T00:19:11.746Z,16.74
2024-04-06T00:19:43.213Z,16.75
2024-04-06T00:20:14.604Z,16.76
2024-04-06T00:20:45.998Z,16.77
2024-04-06T00:21:17.414Z,16.78
2024-04-06T00:21:48.823Z,16.78
2024-04-06T00:22:20.299Z,16.79
2024-04-06T00:22:51.699Z,16.80
2024-04-06T00:23:23.155Z,16.81
2024-04-06T00:23:54.565Z,16.81
2024-04-06T00:24:25.965Z,16.82
2024-04-06T00:24:57.374Z,16.83
2024-04-06T00:25:28.805Z,16.84
2024-04-06T00:26:00.222Z,16.84
2024-04-06T00:26:31.632Z,16.85
2024-04-06T00:27:03.378Z,16.86
2024-04-06T00:27:35.410Z,16.87
2024-04-06T00:28:06.818Z,16.88
2024-04-06T00:28:38.265Z,16.89
2024-04-06T00:29:09.648Z,16.90
2024-04-06T00:29:41.060Z,16.91
2024-04-06T00:30:12.498Z,16.91
2024-04-06T00:30:43.882Z,16.92
2024-04-06T00:31:15.315Z,16.93
2024-04-06T00:31:46.707Z,16.94
2024-04-06T00:32:18.149Z,16.95
2024-04-06T00:32:49.573Z,16.96
2024-04-06T00:33:21.368Z,16.97
2024-04-06T00:33:53.188Z,16.98
2024-04-06T00:34:24.572Z,16.98
2024-04-06T00:34:55.985Z,16.99
2024-04-06T00:35:27.451Z,16.99
2024-04-06T00:35:58.894Z,17.00
2024-04-06T00:36:31.683Z,17.00
2024-04-06T00:37:03.835Z,17.01
2024-04-06T00:37:35.282Z,17.02
2024-04-06T00:38:07.067Z,17.02
2024-04-06T00:38:38.478Z,17.03
2024-04-06T00:39:09.934Z,17.03
2024-04-06T00:39:41.339Z,17.04
2024-04-06T00:40:12.730Z,17.05
2024-04-06T00:40:44.149Z,17.05
2024-04-06T00:41:15.560Z,17.05
2024-04-06T00:41:47.759Z,17.06
2024-04-06T00:42:19.169Z,17.06
2024-04-06T00:42:50.587Z,17.06
2024-04-06T00:43:21.997Z,17.05
2024-04-06T00:43:53.438Z,17.05
2024-04-06T00:44:24.886Z,17.05
2024-04-06T00:44:56.298Z,17.05
2024-04-06T00:45:28.046Z,17.04
2024-04-06T00:45:59.727Z,17.04
2024-04-06T00:46:31.179Z,17.03
2024-04-06T00:47:04.025Z,17.03
2024-04-06T00:47:35.891Z,17.03
2024-04-06T00:48:08.037Z,17.02
2024-04-06T00:48:39.454Z,17.02
2024-04-06T00:49:10.873Z,17.01
2024-04-06T00:49:42.300Z,17.01
2024-04-06T00:50:14.845Z,17.00
2024-04-06T00:50:46.327Z,17.00
2024-04-06T00:51:18.150Z,16.99
2024-04-06T00:51:49.576Z,16.99
2024-04-06T00:52:21.072Z,16.98
2024-04-06T00:52:54.619Z,16.98
2024-04-06T00:53:26.043Z,16.97
2024-04-06T00:53:57.471Z,16.97
2024-04-06T00:54:29.025Z,16.96
2024-04-06T00:55:01.178Z,16.95
2024-04-06T00:55:32.622Z,16.94
2024-04-06T00:56:04.448Z,16.93
2024-04-06T00:56:36.646Z,16.92
2024-04-06T00:57:08.799Z,16.91
2024-04-06T00:57:40.474Z,16.90
2024-04-06T00:58:12.256Z,16.88
2024-04-06T00:58:43.830Z,16.86
2024-04-06T00:59:18.558Z,16.84
2024-04-06T00:59:50.029Z,16.82
2024-04-06T01:00:21.506Z,16.80
2024-04-06T01:00:52.945Z,16.79
2024-04-06T01:01:24.581Z,16.77
2024-04-06T01:02:03.650Z,16.76
2024-04-06T01:02:37.900Z,16.75
2024-04-06T01:03:09.312Z,16.73
2024-04-06T01:03:40.730Z,16.71
2024-04-06T01:04:12.177Z,16.70
2024-04-06T01:04:43.578Z,16.68
2024-04-06T01:05:15.312Z,16.67
2024-04-06T01:05:46.923Z,16.65
2024-04-06T01:06:18.316Z,16.64
2024-04-06T01:06:49.752Z,16.61
2024-04-06T01:07:21.244Z,16.60
2024-04-06T01:07:52.754Z,16.58
2024-04-06T01:08:24.252Z,16.56
2024-04-06T01:08:55.632Z,16.54
2024-04-06T01:09:27.048Z,16.52
2024-04-06T01:09:58.756Z,16.50
2024-04-06T01:10:30.374Z,16.48
2024-04-06T01:11:01.809Z,16.47
2024-04-06T01:11:35.811Z,16.46
2024-04-06T01:12:07.459Z,16.44
2024-04-06T01:12:38.879Z,16.43
2024-04-06T01:13:10.294Z,16.41
2024-04-06T01:13:41.912Z,16.39
2024-04-06T01:14:13.538Z,16.38
2024-04-06T01:14:45.009Z,16.37
2024-04-06T01:15:16.700Z,16.35
2024-04-06T01:15:48.104Z,16.33
2024-04-06T01:16:19.651Z,16.32
2024-04-06T01:16:51.036Z,16.31
2024-04-06T01:17:22.471Z,16.30
2024-04-06T01:17:56.396Z,16.29
2024-04-06T01:18:27.842Z,16.29
2024-04-06T01:18:59.249Z,16.28
2024-04-06T01:19:30.707Z,16.27
2024-04-06T01:20:02.300Z,16.27
2024-04-06T01:20:35.640Z,16.26
2024-04-06T01:21:07.083Z,16.25
2024-04-06T01:21:38.509Z,16.24
2024-04-06T01:22:09.904Z,16.23
2024-04-06T01:22:41.319Z,16.23
2024-04-06T01:23:13.509Z,16.21
2024-04-06T01:23:45.493Z,16.20
2024-04-06T01:24:34.076Z,16.18
2024-04-06T01:25:06.348Z,16.17
2024-04-06T01:25:37.826Z,16.16
2024-04-06T01:26:09.245Z,16.15
2024-04-06T01:26:40.670Z,16.14
2024-04-06T01:27:12.086Z,16.12
2024-04-06T01:27:44.728Z,16.11
2024-04-06T01:28:16.161Z,16.10
2024-04-06T01:28:47.705Z,16.09
2024-04-06T01:29:20.683Z,16.07
2024-04-06T01:29:52.081Z,16.06
2024-04-06T01:30:23.510Z,16.05
2024-04-06T01:30:54.913Z,16.04
2024-04-06T01:31:26.396Z,16.04
2024-04-06T01:31:57.899Z,16.03
2024-04-06T01:32:29.386Z,16.02
2024-04-06T01:33:00.811Z,16.01
2024-04-06T01:33:32.223Z,16.00
2024-04-06T01:34:03.639Z,15.99
2024-04-06T01:34:37.689Z,15.98
2024-04-06T01:35:10.022Z,15.97
2024-04-06T01:35:41.436Z,15.96
2024-04-06T01:36:12.854Z,15.95
2024-04-06T01:36:44.262Z,15.94
2024-04-06T01:37:16.440Z,15.93
2024-04-06T01:37:48.274Z,15.91
2024-04-06T01:38:19.665Z,15.90
2024-04-06T01:38:51.084Z,15.89
2024-04-06T01:39:22.582Z,15.87
2024-04-06T01:39:54.003Z,15.86
2024-04-06T01:40:27.467Z,15.85
2024-04-06T01:41:01.819Z,15.83
2024-04-06T01:41:39.433Z,15.83
2024-04-06T01:42:10.849Z,15.82
2024-04-06T01:42:42.353Z,15.81
2024-04-06T01:43:13.774Z,15.81
2024-04-06T01:43:45.201Z,15.80
2024-04-06T01:44:16.615Z,15.78
2024-04-06T01:44:48.023Z,15.78
2024-04-06T01:45:19.438Z,15.77
2024-04-06T01:45:51.020Z,15.76
2024-04-06T01:46:22.996Z,15.75
2024-04-06T01:46:54.435Z,15.74
2024-04-06T01:47:25.887Z,15.73
2024-04-06T01:47:57.311Z,15.72
2024-04-06T01:48:28.720Z,15.71
2024-04-06T01:49:00.884Z,15.70
2024-04-06T01:49:32.932Z,15.69
2024-04-06T01:50:07.327Z,15.68
2024-04-06T01:50:38.903Z,15.68
2024-04-06T01:51:10.355Z,15.67
2024-04-06T01:51:41.770Z,15.65
2024-04-06T01:52:13.527Z,15.64
2024-04-06T01:52:44.921Z,15.64
2024-04-06T01:53:16.352Z,15.63
2024-04-06T01:53:47.763Z,15.62
2024-04-06T01:54:19.777Z,15.61
2024-04-06T01:54:51.180Z,15.60
2024-04-06T01:55:22.600Z,15.59
2024-04-06T01:55:54.308Z,15.58
2024-04-06T01:56:29.238Z,15.57
2024-04-06T01:57:00.705Z,15.56
2024-04-06T01:57:32.107Z,15.56
2024-04-06T01:58:03.572Z,15.55
2024-04-06T01:58:35.003Z,15.55
2024-04-06T01:59:08.079Z,15.54
2024-04-06T01:59:40.280Z,15.54
2024-04-06T02:00:11.818Z,15.53
2024-04-06T02:00:43.227Z,15.52
2024-04-06T02:01:14.731Z,15.51
2024-04-06T02:01:46.143Z,15.50
2024-04-06T02:02:17.754Z,15.49
2024-04-06T02:02:50.709Z,15.48
2024-04-06T02:03:22.164Z,15.47
2024-04-06T02:03:53.595Z,15.47
2024-04-06T02:04:25.012Z,15.46
2024-04-06T02:04:56.413Z,15.45
2024-04-06T02:05:27.828Z,15.44
2024-04-06T02:06:00.171Z,15.43
2024-04-06T02:06:31.568Z,15.42
2024-04-06T02:07:04.776Z,15.41
2024-04-06T02:07:36.169Z,15.40
2024-04-06T02:08:07.580Z,15.39
2024-04-06T02:08:38.992Z,15.38
2024-04-06T02:09:10.437Z,15.37
2024-04-06T02:09:41.827Z,15.36
2024-04-06T02:10:13.288Z,15.35
2024-04-06T02:10:44.772Z,15.34
2024-04-06T02:11:16.191Z,15.33
2024-04-06T02:11:47.604Z,15.32
2024-04-06T02:12:19.022Z,15.31
2024-04-06T02:12:50.590Z,15.30
2024-04-06T02:13:22.015Z,15.29
2024-04-06T02:13:53.419Z,15.28
2024-04-06T02:14:24.984Z,15.27
2024-04-06T02:14:56.718Z,15.26
2024-04-06T02:15:28.132Z,15.25
2024-04-06T02:15:59.542Z,15.24
2024-04-06T02:16:31.245Z,15.23
2024-04-06T02:17:06.216Z,15.22
2024-04-06T02:17:38.062Z,15.21
2024-04-06T02:18:09.448Z,15.20
2024-04-06T02:18:42.823Z,15.19
2024-04-06T02:19:14.235Z,15.18
2024-04-06T02:19:45.672Z,15.17
2024-04-06T02:20:17.110Z,15.16
2024-04-06T02:20:49.151Z,15.16
2024-04-06T02:21:20.564Z,15.15
2024-04-06T02:21:51.980Z,15.14
2024-04-06T02:22:23.405Z,15.13
2024-04-06T02:22:54.816Z,15.12
2024-04-06T02:23:26.255Z,15.11
2024-04-06T02:23:57.669Z,15.10
2024-04-06T02:24:30.862Z,15.10
2024-04-06T02:25:03.585Z,15.09
2024-04-06T02:25:35.092Z,15.08
2024-04-06T02:26:07.616Z,15.07
2024-04-06T02:26:41.404Z,15.06
2024-04-06T02:27:12.863Z,15.05
2024-04-06T02:27:44.283Z,15.04
2024-04-06T02:28:15.716Z,15.04
2024-04-06T02:28:47.126Z,15.03
2024-04-06T02:29:19.234Z,15.03
2024-04-06T02:29:50.786Z,15.02
2024-04-06T02:30:22.225Z,15.01
2024-04-06T02:30:53.631Z,15.00
2024-04-06T02:31:25.049Z,14.99
2024-04-06T02:31:57.319Z,14.99
2024-04-06T02:32:28.852Z,14.98
2024-04-06T02:33:00.359Z,14.98
2024-04-06T02:33:31.756Z,14.98
2024-04-06T02:34:04.425Z,14.97
2024-04-06T02:34:35.859Z,14.97
2024-04-06T02:35:07.264Z,14.96
2024-04-06T02:35:38.695Z,14.96
2024-04-06T02:36:10.101Z,14.95
2024-04-06T02:36:41.510Z,14.95
2024-04-06T02:37:12.930Z,14.94
2024-04-06T02:37:44.997Z,14.93
2024-04-06T02:38:16.596Z,14.93
2024-04-06T02:38:48.014Z,14.93
2024-04-06T02:39:19.427Z,14.93
2024-04-06T02:39:50.841Z,14.93
2024-04-06T02:40:22.256Z,14.93
2024-04-06T02:40:53.696Z,14.93
2024-04-06T02:41:25.138Z,14.93
2024-04-06T02:41:56.587Z,14.93
2024-04-06T02:42:28.015Z,14.93
2024-04-06T02:42:59.423Z,14.94
2024-04-06T02:43:30.838Z,14.94
2024-04-06T02:44:02.519Z,14.94
2024-04-06T02:44:33.968Z,14.94
2024-04-06T02:45:05.800Z,14.94
2024-04-06T02:45:37.226Z,14.94
2024-04-06T02:46:08.700Z,14.94
2024-04-06T02:46:40.086Z,14.95
2024-04-06T02:47:11.506Z,14.95
2024-04-06T02:47:42.920Z,14.95
2024-04-06T02:48:14.960Z,14.96
2024-04-06T02:48:47.780Z,14.96
2024-04-06T02:49:19.195Z,14.97
2024-04-06T02:49:50.615Z,14.97
2024-04-06T02:50:22.527Z,14.98
2024-04-06T02:50:53.952Z,14.98
2024-04-06T02:51:26.335Z,14.98
2024-04-06T02:51:57.740Z,14.99
2024-04-06T02:52:29.143Z,14.99
2024-04-06T02:53:00.552Z,14.99
2024-04-06T02:53:32.009Z,14.99
2024-04-06T02:54:03.426Z,14.99
2024-04-06T02:54:34.911Z,14.99
2024-04-06T02:55:06.774Z,14.99
2024-04-06T02:55:38.207Z,14.99
2024-04-06T02:56:09.630Z,14.99
2024-04-06T02:56:41.056Z,14.99
2024-04-06T02:57:12.443Z,15.00
2024-04-06T02:57:43.861Z,15.00
2024-04-06T02:58:15.350Z,15.00
2024-04-06T02:58:46.764Z,15.01
2024-04-06T02:59:18.187Z,15.01
2024-04-06T02:59:49.656Z,15.02
2024-04-06T03:00:21.075Z,15.02
2024-04-06T03:00:52.486Z,15.03
2024-04-06T03:01:24.891Z,15.03
2024-04-06T03:01:57.487Z,15.03
2024-04-06T03:02:28.910Z,15.04
2024-04-06T03:03:00.311Z,15.04
2024-04-06T03:03:31.743Z,15.04
2024-04-06T03:04:03.299Z,15.04
2024-04-06T03:04:35.042Z,15.04
2024-04-06T03:05:06.485Z,15.05
2024-04-06T03:05:38.439Z,15.05
2024-04-06T03:06:09.884Z,15.05
2024-04-06T03:06:41.308Z,15.05
2024-04-06T03:07:12.728Z,15.05
2024-04-06T03:07:44.749Z,15.05
2024-04-06T03:08:16.166Z,15.05
2024-04-06T03:08:47.577Z,15.05
2024-04-06T03:09:19.001Z,15.05
2024-04-06T03:09:50.432Z,15.05
2024-04-06T03:10:21.968Z,15.06
2024-04-06T03:10:53.667Z,15.06
2024-04-06T03:11:25.299Z,15.06
2024-04-06T03:11:56.717Z,15.06
2024-04-06T03:12:28.163Z,15.06
2024-04-06T03:12:59.550Z,15.06
2024-04-06T03:13:30.968Z,15.07
2024-04-06T03:14:02.396Z,15.07
2024-04-06T03:14:33.809Z,15.07
2024-04-06T03:15:05.643Z,15.08
2024-04-06T03:15:37.084Z,15.08
2024-04-06T03:16:08.474Z,15.09
2024-04-06T03:16:39.895Z,15.09
2024-04-06T03:17:11.325Z,15.10
2024-04-06T03:17:42.757Z,15.10
2024-04-06T03:18:14.157Z,15.10
2024-04-06T03:18:45.604Z,15.10
2024-04-06T03:19:17.004Z,15.10
2024-04-06T03:19:48.464Z,15.11
2024-04-06T03:20:19.898Z,15.11
2024-04-06T03:20:52.388Z,15.12
2024-04-06T03:21:23.876Z,15.12
2024-04-06T03:21:55.279Z,15.12
2024-04-06T03:22:26.709Z,15.12
2024-04-06T03:23:05.406Z,15.12
2024-04-06T03:23:36.814Z,15.13
2024-04-06T03:24:08.220Z,15.13
2024-04-06T03:24:39.645Z,15.13
2024-04-06T03:25:11.088Z,15.13
2024-04-06T03:25:42.978Z,15.13
2024-04-06T03:26:15.082Z,15.13
2024-04-06T03:26:46.491Z,15.13
2024-04-06T03:27:17.912Z,15.13
2024-04-06T03:27:49.323Z,15.14
2024-04-06T03:28:20.776Z,15.14
2024-04-06T03:28:52.167Z,15.15
2024-04-06T03:29:24.093Z,15.15
2024-04-06T03:29:55.513Z,15.15
2024-04-06T03:30:27.048Z,15.15
2024-04-06T03:30:58.713Z,15.16
2024-04-06T03:31:31.122Z,15.16
2024-04-06T03:32:02.548Z,15.17
2024-04-06T03:32:34.016Z,15.17
2024-04-06T03:33:06.150Z,15.18
2024-04-06T03:33:37.636Z,15.18
2024-04-06T03:34:09.038Z,15.19
2024-04-06T03:34:40.792Z,15.19
2024-04-06T03:35:12.435Z,15.19
2024-04-06T03:35:43.847Z,15.19
2024-04-06T03:36:15.327Z,15.19
2024-04-06T03:36:46.915Z,15.20
2024-04-06T03:37:18.354Z,15.20
2024-04-06T03:37:50.322Z,15.20
2024-04-06T03:38:21.749Z,15.21
2024-04-06T03:38:53.195Z,15.21
2024-04-06T03:39:24.590Z,15.22
2024-04-06T03:39:57.022Z,15.22
2024-04-06T03:40:28.436Z,15.23
2024-04-06T03:41:00.390Z,15.23
2024-04-06T03:41:31.844Z,15.23
2024-04-06T03:42:03.569Z,15.23
2024-04-06T03:42:35.160Z,15.23
2024-04-06T03:43:07.026Z,15.22
2024-04-06T03:43:38.443Z,15.22
2024-04-06T03:44:09.875Z,15.22
2024-04-06T03:44:41.270Z,15.23
2024-04-06T03:45:12.690Z,15.23
2024-04-06T03:45:46.515Z,15.23
2024-04-06T03:46:17.943Z,15.23
2024-04-06T03:46:49.343Z,15.23
2024-04-06T03:47:20.758Z,15.23
2024-04-06T03:47:53.137Z,15.23
2024-04-06T03:48:24.551Z,15.23
2024-04-06T03:48:56.091Z,15.23
2024-04-06T03:49:27.574Z,15.24
2024-04-06T03:49:58.982Z,15.24
2024-04-06T03:50:30.424Z,15.24
2024-04-06T03:51:01.926Z,15.25
2024-04-06T03:51:33.344Z,15.25
2024-04-06T03:52:04.769Z,15.26
2024-04-06T03:52:36.179Z,15.25
2024-04-06T03:53:07.621Z,15.25
2024-04-06T03:53:41.363Z,15.26
2024-04-06T03:54:12.777Z,15.26
2024-04-06T03:54:44.210Z,15.25
2024-04-06T03:55:15.904Z,15.25
2024-04-06T03:55:47.311Z,15.26
2024-04-06T03:56:18.726Z,15.25
2024-04-06T03:56:50.142Z,15.25
2024-04-06T03:57:21.575Z,15.25
2024-04-06T03:57:53.516Z,15.25
2024-04-06T03:58:24.926Z,15.24
2024-04-06T03:58:57.147Z,15.24
2024-04-06T03:59:28.652Z,15.24
2024-04-06T04:00:00.455Z,15.24
2024-04-06T04:00:31.905Z,15.23
2024-04-06T04:01:03.537Z,15.23
2024-04-06T04:01:34.981Z,15.23
2024-04-06T04:02:06.388Z,15.23
2024-04-06T04:02:37.988Z,15.23
2024-04-06T04:03:09.560Z,15.23
2024-04-06T04:03:40.963Z,15.22
2024-04-06T04:04:12.388Z,15.21
2024-04-06T04:04:43.807Z,15.21
2024-04-06T04:05:15.428Z,15.20
2024-04-06T04:05:48.103Z,15.19
2024-04-06T04:06:19.554Z,15.19
2024-04-06T04:06:50.984Z,15.18
2024-04-06T04:07:22.390Z,15.18
2024-04-06T04:07:53.804Z,15.17
2024-04-06T04:08:25.229Z,15.16
2024-04-06T04:08:56.638Z,15.16
2024-04-06T04:09:28.047Z,15.15
2024-04-06T04:10:03.683Z,15.15
2024-04-06T04:10:36.894Z,15.14
2024-04-06T04:11:08.294Z,15.13
2024-04-06T04:11:39.711Z,15.12
2024-04-06T04:12:11.144Z,15.12
2024-04-06T04:12:42.547Z,15.11
2024-04-06T04:13:13.964Z,15.10
2024-04-06T04:13:45.379Z,15.10
2024-04-06T04:14:16.792Z,15.10
2024-04-06T04:14:48.209Z,15.09
2024-04-06T04:15:19.640Z,15.09
2024-04-06T04:15:51.693Z,15.08
2024-04-06T04:16:23.149Z,15.08
2024-04-06T04:16:54.568Z,15.07
2024-04-06T04:17:26.332Z,15.07
2024-04-06T04:17:57.764Z,15.07
2024-04-06T04:18:29.298Z,15.07
2024-04-06T04:19:01.467Z,15.07
2024-04-06T04:19:32.951Z,15.06
2024-04-06T04:20:04.908Z,15.06
2024-04-06T04:20:36.397Z,15.05
2024-04-06T04:21:07.839Z,15.04
2024-04-06T04:21:39.246Z,15.04
2024-04-06T04:22:10.655Z,15.03
2024-04-06T04:22:42.067Z,15.02
2024-04-06T04:23:13.489Z,15.01
2024-04-06T04:23:44.967Z,15.01
2024-04-06T04:24:17.180Z,15.00
2024-04-06T04:24:48.606Z,14.99
2024-04-06T04:25:20.020Z,14.98
2024-04-06T04:25:51.529Z,14.97
2024-04-06T04:26:23.471Z,14.97
2024-04-06T04:26:54.866Z,14.96
2024-04-06T04:27:26.656Z,14.95
2024-04-06T04:27:59.756Z,14.95
2024-04-06T04:28:31.170Z,14.95
2024-04-06T04:29:02.617Z,14.94
2024-04-06T04:29:34.312Z,14.94
2024-04-06T04:30:06.408Z,14.93
2024-04-06T04:30:37.844Z,14.92
2024-04-06T04:31:15.304Z,14.92
2024-04-06T04:31:46.736Z,14.91
2024-04-06T04:32:18.129Z,14.90
2024-04-06T04:32:49.926Z,14.90
2024-04-06T04:33:21.540Z,14.90
2024-04-06T04:33:52.958Z,14.90
2024-04-06T04:34:24.381Z,14.90
2024-04-06T04:34:55.797Z,14.90
2024-04-06T04:35:27.270Z,14.89
2024-04-06T04:35:58.709Z,14.88
2024-04-06T04:36:30.126Z,14.88
2024-04-06T04:37:03.776Z,14.87
2024-04-06T04:37:35.275Z,14.87
2024-04-06T04:38:06.684Z,14.87
2024-04-06T04:38:38.166Z,14.86
2024-04-06T04:39:10.759Z,14.86
2024-04-06T04:39:43.107Z,14.86
2024-04-06T04:40:14.814Z,14.85
2024-04-06T04:40:46.244Z,14.85
2024-04-06T04:41:18.079Z,14.85
2024-04-06T04:41:51.328Z,14.85
2024-04-06T04:42:22.761Z,14.85
2024-04-06T04:42:54.201Z,14.85
2024-04-06T04:43:25.628Z,14.85
2024-04-06T04:43:57.035Z,14.85
2024-04-06T04:44:38.349Z,14.85
2024-04-06T04:45:14.139Z,14.84
2024-04-06T04:45:45.574Z,14.84
2024-04-06T04:46:17.703Z,14.84
2024-04-06T04:46:49.113Z,14.83
2024-04-06T04:47:20.534Z,14.83
2024-04-06T04:47:51.984Z,14.83
2024-04-06T04:48:23.536Z,14.82
2024-04-06T04:48:59.557Z,14.82
2024-04-06T04:49:30.959Z,14.82
2024-04-06T04:50:05.899Z,14.82
2024-04-06T04:50:37.414Z,14.81
2024-04-06T04:51:08.824Z,14.81
2024-04-06T04:51:40.290Z,14.81
2024-04-06T04:52:11.707Z,14.82
2024-04-06T04:52:43.118Z,14.82
2024-04-06T04:53:14.631Z,14.82
2024-04-06T04:53:46.033Z,14.82
2024-04-06T04:54:17.985Z,14.82
2024-04-06T04:54:49.404Z,14.82
2024-04-06T04:55:22.339Z,14.82
2024-04-06T04:55:54.875Z,14.82
2024-04-06T04:56:26.295Z,14.82
2024-04-06T04:56:57.729Z,14.82
2024-04-06T04:57:29.558Z,14.82
2024-04-06T04:58:00.984Z,14.83
2024-04-06T04:58:32.404Z,14.83
2024-04-06T04:59:06.997Z,14.83
2024-04-06T04:59:38.434Z,14.84
2024-04-06T05:00:10.344Z,14.84
2024-04-06T05:00:41.771Z,14.84
2024-04-06T05:01:18.939Z,14.84
2024-04-06T05:01:50.378Z,14.85
2024-04-06T05:02:21.803Z,14.85
2024-04-06T05:02:53.350Z,14.85
2024-04-06T05:03:24.774Z,14.85
2024-04-06T05:03:56.398Z,14.85
2024-04-06T05:04:27.788Z,14.86
2024-04-06T05:04:59.225Z,14.86
2024-04-06T05:05:30.642Z,14.86
2024-04-06T05:06:03.053Z,14.87
2024-04-06T05:06:34.759Z,14.87
2024-04-06T05:07:06.235Z,14.88
2024-04-06T05:07:37.650Z,14.88
2024-04-06T05:08:09.067Z,14.89
2024-04-06T05:08:40.482Z,14.90
2024-04-06T05:09:11.914Z,14.90
2024-04-06T05:09:43.566Z,14.91
2024-04-06T05:10:14.995Z,14.91
2024-04-06T05:10:46.414Z,14.92
2024-04-06T05:11:17.835Z,14.92
2024-04-06T05:11:49.247Z,14.93
2024-04-06T05:12:20.682Z,14.93
2024-04-06T05:12:52.093Z,14.94
2024-04-06T05:13:23.498Z,14.94
2024-04-06T05:13:54.923Z,14.94
2024-04-06T05:14:28.158Z,14.95
2024-04-06T05:14:59.565Z,14.95
2024-04-06T05:15:30.996Z,14.96
2024-04-06T05:16:02.441Z,14.97
2024-04-06T05:16:33.866Z,14.97
2024-04-06T05:17:05.309Z,14.98
2024-04-06T05:17:37.665Z,14.99
2024-04-06T05:18:09.055Z,14.99
2024-04-06T05:18:40.471Z,14.99
2024-04-06T05:19:12.259Z,15.00
2024-04-06T05:19:43.698Z,15.00
2024-04-06T05:20:15.139Z,15.01
2024-04-06T05:20:53.703Z,15.02
2024-04-06T05:21:25.136Z,15.03
2024-04-06T05:21:56.553Z,15.04
2024-04-06T05:22:27.967Z,15.04
2024-04-06T05:22:59.392Z,15.06
2024-04-06T05:23:30.860Z,15.06
2024-04-06T05:24:03.215Z,15.07
2024-04-06T05:24:34.620Z,15.08
2024-04-06T05:25:06.138Z,15.09
2024-04-06T05:25:38.145Z,15.09
2024-04-06T05:26:09.562Z,15.10
2024-04-06T05:26:41.746Z,15.11
2024-04-06T05:27:13.369Z,15.12
2024-04-06T05:27:44.780Z,15.12
2024-04-06T05:28:17.470Z,15.13
2024-04-06T05:28:48.913Z,15.15
2024-04-06T05:29:20.307Z,15.16
2024-04-06T05:29:51.722Z,15.17
2024-04-06T05:30:23.148Z,15.18
2024-04-06T05:30:54.562Z,15.18
2024-04-06T05:31:25.988Z,15.19
2024-04-06T05:31:58.305Z,15.20
2024-04-06T05:32:29.805Z,15.20
2024-04-06T05:33:01.232Z,15.21
2024-04-06T05:33:32.649Z,15.22
2024-04-06T05:34:04.476Z,15.23
2024-04-06T05:34:35.943Z,15.23
2024-04-06T05:35:09.408Z,15.24
2024-04-06T05:35:42.189Z,15.25
2024-04-06T05:36:14.493Z,15.26
2024-04-06T05:36:46.406Z,15.26
2024-04-06T05:37:17.857Z,15.27
2024-04-06T05:37:49.332Z,15.28
2024-04-06T05:38:21.826Z,15.28
2024-04-06T05:38:53.851Z,15.29
2024-04-06T05:39:25.350Z,15.30
2024-04-06T05:39:56.777Z,15.31
2024-04-06T05:40:28.186Z,15.32
2024-04-06T05:40:59.620Z,15.33
2024-04-06T05:41:31.124Z,15.34
2024-04-06T05:42:02.685Z,15.35
2024-04-06T05:42:34.114Z,15.36
2024-04-06T05:43:06.505Z,15.37
2024-04-06T05:43:37.918Z,15.38
2024-04-06T05:44:09.360Z,15.39
2024-04-06T05:44:40.802Z,15.40
2024-04-06T05:45:12.236Z,15.41
2024-04-06T05:45:43.665Z,15.42
2024-04-06T05:46:15.090Z,15.44
2024-04-06T05:46:46.495Z,15.44
2024-04-06T05:47:17.889Z,15.45
2024-04-06T05:47:50.351Z,15.46
2024-04-06T05:48:21.771Z,15.46
2024-04-06T05:48:53.210Z,15.47
2024-04-06T05:49:24.614Z,15.49
2024-04-06T05:49:56.031Z,15.50
2024-04-06T05:50:27.524Z,15.52
2024-04-06T05:50:59.167Z,15.53
2024-04-06T05:51:30.599Z,15.54
2024-04-06T05:52:02.036Z,15.56
2024-04-06T05:52:33.590Z,15.57
2024-04-06T05:53:05.014Z,15.58
2024-04-06T05:53:36.464Z,15.60
2024-04-06T05:54:07.863Z,15.61
2024-04-06T05:54:39.412Z,15.62
2024-04-06T05:55:10.824Z,15.63
2024-04-06T05:55:42.243Z,15.64
2024-04-06T05:56:13.657Z,15.66
2024-04-06T05:56:45.119Z,15.68
2024-04-06T05:57:16.509Z,15.69
2024-04-06T05:57:47.940Z,15.70
2024-04-06T05:58:21.803Z,15.72
2024-04-06T05:58:53.220Z,15.74
2024-04-06T05:59:24.632Z,15.75
2024-04-06T05:59:56.048Z,15.77
2024-04-06T06:00:27.470Z,15.78
2024-04-06T06:00:58.979Z,15.80
2024-04-06T06:01:30.396Z,15.81
2024-04-06T06:02:01.839Z,15.82
2024-04-06T06:02:33.238Z,15.83
2024-04-06T06:03:04.642Z,15.84
2024-04-06T06:03:36.058Z,15.85
2024-04-06T06:04:07.952Z,15.87
2024-04-06T06:04:39.344Z,15.88
2024-04-06T06:05:13.038Z,15.89
2024-04-06T06:05:45.415Z,15.91
2024-04-06T06:06:16.862Z,15.93
2024-04-06T06:06:48.318Z,15.94
2024-04-06T06:07:20.658Z,15.95
2024-04-06T06:07:52.192Z,15.97
2024-04-06T06:08:23.622Z,15.98
2024-04-06T06:08:55.079Z,15.99
2024-04-06T06:09:26.934Z,16.00
2024-04-06T06:09:58.420Z,16.01
2024-04-06T06:10:29.896Z,16.02
2024-04-06T06:11:01.301Z,16.03
2024-04-06T06:11:32.753Z,16.04
2024-04-06T06:12:04.529Z,16.05
2024-04-06T06:12:36.024Z,16.07
2024-04-06T06:13:07.427Z,16.07
2024-04-06T06:13:38.853Z,16.08
2024-04-06T06:14:10.267Z,16.09
2024-04-06T06:14:41.702Z,16.10
2024-04-06T06:15:13.134Z,16.10
2024-04-06T06:15:44.551Z,16.11
2024-04-06T06:16:15.961Z,16.12
2024-04-06T06:16:47.379Z,16.12
2024-04-06T06:17:19.558Z,16.13
2024-04-06T06:17:51.000Z,16.14
2024-04-06T06:18:22.394Z,16.15
2024-04-06T06:18:53.817Z,16.16
2024-04-06T06:19:25.229Z,16.17
2024-04-06T06:19:56.650Z,16.17
2024-04-06T06:20:28.050Z,16.18
2024-04-06T06:21:04.102Z,16.19
2024-04-06T06:21:35.526Z,16.20
2024-04-06T06:22:08.097Z,16.21
2024-04-06T06:22:39.533Z,16.22
2024-04-06T06:23:10.951Z,16.23
2024-04-06T06:23:42.359Z,16.24
2024-04-06T06:24:13.909Z,16.25
2024-04-06T06:24:45.327Z,16.26
2024-04-06T06:25:19.040Z,16.27
2024-04-06T06:25:50.486Z,16.28
2024-04-06T06:26:22.239Z,16.29
2024-04-06T06:26:53.653Z,16.30
2024-04-06T06:27:25.130Z,16.31
2024-04-06T06:27:56.546Z,16.32
2024-04-06T06:28:27.971Z,16.33
2024-04-06T06:28:59.364Z,16.34
2024-04-06T06:29:31.324Z,16.35
2024-04-06T06:30:03.029Z,16.36
2024-04-06T06:30:34.446Z,16.37
2024-04-06T06:31:05.985Z,16.38
2024-04-06T06:31:37.400Z,16.39
2024-04-06T06:32:08.836Z,16.40
2024-04-06T06:32:40.484Z,16.41
2024-04-06T06:33:11.885Z,16.43
2024-04-06T06:33:43.314Z,16.43
2024-04-06T06:34:14.712Z,16.45
2024-04-06T06:34:46.177Z,16.46
2024-04-06T06:35:17.600Z,16.48
2024-04-06T06:38:12.679Z,16.52
2024-04-06T06:41:03.134Z,16.55
2024-04-06T06:41:34.600Z,16.56
2024-04-06T06:42:11.630Z,16.56
2024-04-06T06:42:43.494Z,16.57
2024-04-06T06:43:14.931Z,16.59
2024-04-06T06:43:46.359Z,16.59
2024-04-06T06:44:17.787Z,16.60
2024-04-06T06:44:49.213Z,16.60
2024-04-06T06:45:20.620Z,16.60
2024-04-06T06:45:52.060Z,16.60
2024-04-06T06:46:23.446Z,16.60
2024-04-06T06:46:54.924Z,16.61
2024-04-06T06:47:26.381Z,16.62
2024-04-06T06:47:57.795Z,16.63
2024-04-06T06:48:29.273Z,16.64
2024-04-06T06:49:00.838Z,16.64
2024-04-06T06:49:32.781Z,16.65
2024-04-06T06:50:04.416Z,16.67
2024-04-06T06:50:37.892Z,16.68
2024-04-06T06:51:09.292Z,16.68
2024-04-06T06:51:40.705Z,16.69
2024-04-06T06:52:12.119Z,16.70
2024-04-06T06:52:43.529Z,16.71
2024-04-06T06:53:14.972Z,16.72
2024-04-06T06:53:46.359Z,16.72
2024-04-06T06:54:17.795Z,16.73